Time;durP1;ratioP1;P1;durP2;ratioP2;P2;SDS_P1;SDS_P2;PMS_P1;PMS_P2;Temp;Humidity;BMP_temperature;BMP_pressure;BME280_temperature;BME280_humidity;BME280_pressure;Samples;Min_cycle;Max_cycle;Signal;HPM_P1;HPM_P2
2021/12/11 00:00:38;;;;;;;6.22;5.63;;;-2.80;99.90;;;;;;7225475;19;20472;-79
2021/12/11 00:03:12;;;;;;;8.07;6.63;;;-2.80;99.90;;;;;;7381990;19;20335;-79
2021/12/11 00:05:39;;;;;;;8.73;7.10;;;-2.80;99.90;;;;;;7383794;19;20321;-78
2021/12/11 00:08:05;;;;;;;8.68;6.45;;;-2.80;99.90;;;;;;7381557;19;20725;-78
2021/12/11 00:10:44;;;;;;;8.15;6.35;;;-2.80;99.90;;;;;;7381972;19;20300;-79
2021/12/11 00:13:16;;;;;;;7.53;5.63;;;-2.90;99.90;;;;;;7279861;19;2020061;-79
2021/12/11 00:15:43;;;;;;;7.55;6.43;;;-2.80;99.90;;;;;;7383266;19;20324;-78
2021/12/11 00:18:13;;;;;;;8.05;7.25;;;-2.80;99.90;;;;;;7380497;19;20321;-80
2021/12/11 00:20:44;;;;;;;8.07;6.30;;;-2.80;99.90;;;;;;7380416;19;20378;-79
2021/12/11 00:23:10;;;;;;;9.07;6.57;;;-2.80;99.90;;;;;;7381673;19;20343;-79
2021/12/11 00:25:42;;;;;;;8.18;6.65;;;-2.90;99.90;;;;;;7382347;19;20368;-78
2021/12/11 00:28:08;;;;;;;9.32;7.00;;;-2.90;99.90;;;;;;7382334;19;20352;-79
2021/12/11 00:30:39;;;;;;;7.67;5.90;;;-3.00;99.90;;;;;;7383186;19;20363;-78
2021/12/11 00:33:15;;;;;;;8.38;6.70;;;-3.00;99.90;;;;;;7366765;19;20321;-79
2021/12/11 00:35:41;;;;;;;9.50;7.37;;;-3.00;99.90;;;;;;7279719;19;2019782;-79
2021/12/11 00:38:09;;;;;;;11.20;8.00;;;-3.10;99.90;;;;;;7382731;19;20320;-79
2021/12/11 00:40:35;;;;;;;8.77;7.32;;;-3.20;99.90;;;;;;7379499;19;20903;-79
2021/12/11 00:43:03;;;;;;;12.70;7.40;;;-3.20;99.90;;;;;;7385220;19;20323;-78
2021/12/11 00:45:34;;;;;;;8.27;7.38;;;-3.30;99.90;;;;;;7381875;19;20349;-78
2021/12/11 00:48:04;;;;;;;10.18;6.93;;;-3.30;99.90;;;;;;7385451;19;20947;-79
2021/12/11 00:50:39;;;;;;;9.50;7.37;;;-3.30;99.90;;;;;;7390986;19;21195;-79
2021/12/11 00:53:14;;;;;;;7.95;6.80;;;-3.20;99.90;;;;;;7364055;19;20943;-79
2021/12/11 00:55:43;;;;;;;8.32;6.43;;;-3.20;99.90;;;;;;7279432;19;2020147;-79
2021/12/11 00:58:20;;;;;;;8.00;6.53;;;-3.20;99.90;;;;;;7382937;19;20498;-79
2021/12/11 01:00:58;;;;;;;7.28;6.38;;;-3.20;99.90;;;;;;7359266;19;20344;-79
2021/12/11 01:03:33;;;;;;;9.43;7.53;;;-3.20;99.90;;;;;;7382938;19;20324;-78
2021/12/11 01:06:00;;;;;;;9.80;7.10;;;-3.20;99.90;;;;;;7381169;19;20336;-77
2021/12/11 01:08:32;;;;;;;7.40;6.00;;;-3.30;99.90;;;;;;7378096;19;20316;-78
2021/12/11 01:11:29;;;;;;;6.53;5.93;;;-3.50;99.90;;;;;;7381618;19;20352;-78
2021/12/11 01:14:37;;;;;;;7.93;7.00;;;-3.50;99.90;;;;;;7381644;19;20308;-79
2021/12/11 01:17:06;;;;;;;6.30;5.68;;;-3.40;99.90;;;;;;7278999;19;2010898;-79
2021/12/11 01:19:36;;;;;;;7.68;6.65;;;-3.40;99.90;;;;;;7381194;19;20875;-78
2021/12/11 01:22:19;;;;;;;9.35;7.15;;;-3.50;99.90;;;;;;7379096;19;20336;-78
2021/12/11 01:24:46;;;;;;;8.95;7.65;;;-3.50;99.90;;;;;;7377325;19;20310;-79
2021/12/11 01:27:18;;;;;;;9.35;7.32;;;-3.50;99.90;;;;;;7380386;19;20316;-79
2021/12/11 01:29:44;;;;;;;9.98;7.82;;;-3.50;99.90;;;;;;7377934;19;20312;-79
2021/12/11 01:32:10;;;;;;;10.13;7.47;;;-3.50;99.90;;;;;;7380810;19;20360;-78
2021/12/11 01:34:36;;;;;;;9.60;8.07;;;-3.50;99.90;;;;;;7377991;19;20315;-78
2021/12/11 01:37:02;;;;;;;9.77;7.70;;;-3.40;99.90;;;;;;7381025;19;20308;-78
2021/12/11 01:39:30;;;;;;;9.70;7.13;;;-3.50;99.90;;;;;;7380042;19;20361;-78
2021/12/11 01:41:57;;;;;;;12.47;7.63;;;-3.50;99.90;;;;;;7382010;19;20308;-80
2021/12/11 01:44:29;;;;;;;11.07;8.75;;;-3.40;99.90;;;;;;7379821;19;20312;-79
2021/12/11 01:47:04;;;;;;;14.75;9.35;;;-3.60;99.90;;;;;;7385910;19;20304;-78
2021/12/11 01:49:32;;;;;;;8.65;7.45;;;-3.60;99.90;;;;;;7386360;19;20380;-78
2021/12/11 01:52:02;;;;;;;11.60;7.53;;;-3.60;99.90;;;;;;7386430;19;20328;-79
2021/12/11 01:54:39;;;;;;;8.35;7.22;;;-3.60;99.90;;;;;;7389280;19;20308;-77
2021/12/11 01:57:14;;;;;;;11.25;8.25;;;-3.60;99.90;;;;;;7285144;19;2020004;-79
2021/12/11 01:59:43;;;;;;;10.80;8.77;;;-3.50;99.90;;;;;;7282595;19;2015130;-80
2021/12/11 02:02:13;;;;;;;11.48;9.52;;;-3.60;99.90;;;;;;7389054;19;20392;-79
2021/12/11 02:04:41;;;;;;;13.40;8.73;;;-3.70;99.90;;;;;;7386255;19;20388;-79
2021/12/11 02:07:14;;;;;;;9.63;7.35;;;-3.70;99.90;;;;;;7388961;19;20313;-79
2021/12/11 02:09:40;;;;;;;11.38;7.57;;;-3.70;99.90;;;;;;7385547;19;21240;-79
2021/12/11 02:12:16;;;;;;;10.07;8.88;;;-3.60;99.90;;;;;;7387737;19;20345;-79
2021/12/11 02:14:46;;;;;;;13.90;9.93;;;-3.60;99.90;;;;;;7382780;19;20424;-78
2021/12/11 02:17:24;;;;;;;9.43;7.88;;;-3.60;99.90;;;;;;7382981;19;20969;-78
2021/12/11 02:19:49;;;;;;;11.32;7.95;;;-3.70;99.90;;;;;;7380717;19;20336;-79
2021/12/11 02:22:18;;;;;;;14.37;9.00;;;-3.70;99.90;;;;;;7382749;19;20339;-79
2021/12/11 02:24:52;;;;;;;10.60;7.95;;;-3.70;99.90;;;;;;7385494;19;20372;-78
2021/12/11 02:27:23;;;;;;;8.50;7.50;;;-3.70;99.90;;;;;;7386518;19;20316;-79
2021/12/11 02:29:56;;;;;;;10.25;8.15;;;-3.60;99.90;;;;;;7385852;19;20328;-78
2021/12/11 02:32:32;;;;;;;9.98;7.95;;;-3.70;99.90;;;;;;7386600;19;20348;-78
2021/12/11 02:35:23;;;;;;;11.25;8.63;;;-3.70;99.90;;;;;;7382659;19;20853;-78
2021/12/11 02:37:56;;;;;;;9.85;8.85;;;-3.80;99.90;;;;;;7384347;19;20345;-78
2021/12/11 02:40:35;;;;;;;10.65;7.70;;;-3.80;99.90;;;;;;7384896;19;20336;-78
2021/12/11 02:43:06;;;;;;;9.43;7.60;;;-3.90;99.90;;;;;;7385078;19;20312;-79
2021/12/11 02:45:47;;;;;;;11.25;8.70;;;-3.80;99.90;;;;;;7384890;19;20417;-78
2021/12/11 02:48:20;;;;;;;10.32;8.20;;;-3.90;99.90;;;;;;7384549;19;20324;-79
2021/12/11 02:50:54;;;;;;;9.05;7.90;;;-3.90;99.90;;;;;;7382872;19;20471;-80
2021/12/11 02:53:42;;;;;;;12.23;8.33;;;-3.90;99.90;;;;;;7385175;19;20301;-79
2021/12/11 02:56:15;;;;;;;10.13;8.87;;;-3.90;99.90;;;;;;7383060;19;20339;-82
2021/12/11 02:58:47;;;;;;;15.23;8.83;;;-3.90;99.90;;;;;;7382010;19;20470;-78
2021/12/11 03:01:21;;;;;;;11.52;9.52;;;-3.90;99.90;;;;;;7384896;19;20362;-79
2021/12/11 03:03:52;;;;;;;14.32;8.55;;;-4.00;99.90;;;;;;7384987;19;20749;-78
2021/12/11 03:06:22;;;;;;;12.70;8.95;;;-4.10;99.90;;;;;;7284434;19;2004151;-80
2021/12/11 03:08:49;;;;;;;11.75;8.43;;;-4.10;99.90;;;;;;7382297;19;20373;-80
2021/12/11 03:11:16;;;;;;;11.70;9.27;;;-4.10;99.90;;;;;;7385148;19;20363;-78
2021/12/11 03:13:50;;;;;;;11.10;8.90;;;-4.10;99.90;;;;;;7386162;19;20700;-79
2021/12/11 03:16:15;;;;;;;11.23;8.57;;;-4.10;99.90;;;;;;7385071;19;20384;-79
2021/12/11 03:18:41;;;;;;;9.30;8.30;;;-4.10;99.90;;;;;;7383471;19;20324;-78
2021/12/11 03:21:07;;;;;;;13.13;8.83;;;-4.10;99.90;;;;;;7388491;19;20328;-79
2021/12/11 03:23:32;;;;;;;10.55;8.30;;;-4.10;99.90;;;;;;7385772;19;20340;-78
2021/12/11 03:25:58;;;;;;;9.27;7.90;;;-4.20;99.90;;;;;;7389050;19;20341;-79
2021/12/11 03:28:24;;;;;;;12.07;9.13;;;-4.20;99.90;;;;;;7389107;19;20344;-79
2021/12/11 03:30:56;;;;;;;13.53;9.07;;;-4.20;99.90;;;;;;7384579;19;20650;-79
2021/12/11 03:33:22;;;;;;;9.57;8.05;;;-4.20;99.90;;;;;;7383778;19;20326;-79
2021/12/11 03:35:48;;;;;;;10.70;7.30;;;-4.30;99.90;;;;;;7384399;19;20312;-78
2021/12/11 03:38:14;;;;;;;9.93;7.78;;;-4.20;99.90;;;;;;7383296;19;20348;-79
2021/12/11 03:40:39;;;;;;;10.13;8.03;;;-4.20;99.90;;;;;;7382815;19;20355;-78
2021/12/11 03:43:06;;;;;;;11.93;8.20;;;-4.20;99.90;;;;;;7372240;19;20311;-79
2021/12/11 03:45:33;;;;;;;10.23;7.53;;;-4.30;99.90;;;;;;7384800;19;20337;-78
2021/12/11 03:48:03;;;;;;;11.07;8.15;;;-4.30;99.90;;;;;;7382467;19;20339;-79
2021/12/11 03:50:29;;;;;;;14.38;9.25;;;-4.30;99.90;;;;;;7386938;19;20341;-79
2021/12/11 03:52:55;;;;;;;16.70;8.07;;;-4.40;99.90;;;;;;7386387;19;20351;-79
2021/12/11 03:55:42;;;;;;;12.13;7.70;;;-4.50;99.90;;;;;;7383843;19;21110;-79
2021/12/11 03:58:08;;;;;;;12.35;8.40;;;-4.60;99.90;;;;;;7379415;19;20904;-79
2021/12/11 04:00:37;;;;;;;9.27;7.03;;;-4.60;99.90;;;;;;7381206;19;20353;-78
2021/12/11 04:03:06;;;;;;;9.88;7.03;;;-4.50;99.90;;;;;;7386500;19;20344;-79
2021/12/11 04:05:33;;;;;;;10.13;7.63;;;-4.50;99.90;;;;;;7383008;19;21062;-79
2021/12/11 04:07:59;;;;;;;9.40;7.20;;;-4.50;99.90;;;;;;7382212;19;20348;-79
2021/12/11 04:10:27;;;;;;;7.53;6.73;;;-4.50;99.90;;;;;;7382184;19;20344;-78
2021/12/11 04:12:54;;;;;;;7.32;6.57;;;-4.60;99.90;;;;;;7383847;19;20360;-78
2021/12/11 04:15:20;;;;;;;9.40;7.25;;;-4.60;99.90;;;;;;7383224;19;20332;-79
2021/12/11 04:17:45;;;;;;;12.50;7.90;;;-4.50;99.90;;;;;;7383732;19;20629;-78
2021/12/11 04:20:20;;;;;;;10.20;7.30;;;-4.60;99.90;;;;;;7380905;19;20320;-79
2021/12/11 04:22:45;;;;;;;9.60;8.40;;;-4.60;99.90;;;;;;7379976;19;20360;-78
2021/12/11 04:25:13;;;;;;;7.77;6.43;;;-4.60;99.90;;;;;;7382385;19;20901;-78
2021/12/11 04:27:38;;;;;;;10.73;6.95;;;-4.80;99.90;;;;;;7381210;19;20537;-79
2021/12/11 04:30:08;;;;;;;9.87;7.90;;;-4.80;99.90;;;;;;7380912;19;20360;-79
2021/12/11 04:32:34;;;;;;;13.13;8.93;;;-4.80;99.90;;;;;;7384435;19;20390;-79
2021/12/11 04:35:02;;;;;;;12.50;8.00;;;-5.10;99.90;;;;;;7384756;19;20320;-78
2021/12/11 04:37:30;;;;;;;10.40;7.60;;;-5.10;99.90;;;;;;7381285;19;20361;-78
2021/12/11 04:40:01;;;;;;;9.27;8.07;;;-5.10;99.90;;;;;;7382308;19;20672;-79
2021/12/11 04:44:57;;;;;;;10.05;7.18;;;-5.20;99.90;;;;;;7383483;19;20331;-79
2021/12/11 04:47:41;;;;;;;11.30;7.60;;;-5.30;99.90;;;;;;7381602;19;20352;-79
2021/12/11 04:50:22;;;;;;;12.23;8.27;;;-5.10;99.90;;;;;;7379881;19;20321;-79
2021/12/11 04:52:58;;;;;;;9.68;7.85;;;-5.10;99.90;;;;;;7372633;19;20892;-79
2021/12/11 04:55:58;;;;;;;7.88;7.07;;;-5.10;99.90;;;;;;7376966;19;20408;-78
2021/12/11 05:06:45;;;;;;;9.82;7.38;;;-5.10;99.90;;;;;;7380441;19;20319;-78
2021/12/11 05:09:21;;;;;;;8.23;7.20;;;-5.20;99.90;;;;;;7276368;19;2011583;-78
2021/12/11 05:12:05;;;;;;;10.85;8.40;;;-5.30;99.90;;;;;;7379604;19;20312;-78
2021/12/11 05:14:31;;;;;;;10.97;7.60;;;-5.30;99.90;;;;;;7276881;19;2010418;-79
2021/12/11 05:16:56;;;;;;;10.47;7.73;;;-5.30;99.90;;;;;;7381060;19;20344;-79
2021/12/11 05:19:22;;;;;;;11.90;8.20;;;-5.30;99.90;;;;;;7379014;19;20340;-79
2021/12/11 05:21:47;;;;;;;10.13;7.73;;;-5.30;99.90;;;;;;7392547;19;20317;-79
2021/12/11 05:24:15;;;;;;;10.77;7.67;;;-5.30;99.90;;;;;;7392629;19;20453;-79
2021/12/11 05:26:41;;;;;;;9.55;8.20;;;-5.40;99.90;;;;;;7392902;19;20871;-79
2021/12/11 05:29:07;;;;;;;12.23;9.43;;;-5.50;99.90;;;;;;7391847;19;20388;-79
2021/12/11 05:31:33;;;;;;;9.77;7.97;;;-5.60;99.90;;;;;;7392846;19;22000;-78
2021/12/11 05:33:58;;;;;;;14.60;8.70;;;-5.80;99.90;;;;;;7392683;19;20673;-78
2021/12/11 05:36:27;;;;;;;11.15;8.45;;;-5.80;99.90;;;;;;7397552;19;20723;-78
2021/12/11 05:38:53;;;;;;;11.77;9.10;;;-5.90;99.90;;;;;;7390817;19;20708;-78
2021/12/11 05:41:19;;;;;;;13.63;10.20;;;-5.90;99.90;;;;;;7395729;19;20300;-78
2021/12/11 05:43:45;;;;;;;13.13;8.98;;;-6.00;99.90;;;;;;7392773;19;20895;-77
2021/12/11 05:46:11;;;;;;;12.75;8.90;;;-6.00;99.90;;;;;;7393787;19;20332;-77
2021/12/11 05:48:37;;;;;;;15.00;10.43;;;-6.00;99.90;;;;;;7397394;19;20341;-79
2021/12/11 05:51:04;;;;;;;11.65;9.02;;;-6.00;99.90;;;;;;7393339;19;20685;-79
2021/12/11 05:53:31;;;;;;;9.65;7.68;;;-6.00;99.90;;;;;;7396105;19;20340;-78
2021/12/11 05:55:58;;;;;;;14.43;10.30;;;-6.00;99.90;;;;;;7395375;19;20320;-78
2021/12/11 06:01:08;;;;;;;10.67;8.17;;;-6.10;99.90;;;;;;7396289;19;20398;-79
2021/12/11 06:03:37;;;;;;;11.30;8.20;;;-6.00;99.90;;;;;;7397461;19;20416;-78
2021/12/11 06:06:04;;;;;;;13.57;10.15;;;-6.10;99.90;;;;;;7394210;19;20316;-78
2021/12/11 06:08:31;;;;;;;9.35;8.07;;;-6.20;99.90;;;;;;7395940;19;20312;-78
2021/12/11 06:10:57;;;;;;;13.32;8.95;;;-6.20;99.90;;;;;;7389251;19;20355;-79
2021/12/11 06:13:25;;;;;;;10.30;8.35;;;-6.20;99.90;;;;;;7387415;19;20337;-78
2021/12/11 06:15:51;;;;;;;12.43;9.35;;;-6.20;99.90;;;;;;7395207;19;20333;-79
2021/12/11 06:18:18;;;;;;;12.52;7.47;;;-6.20;99.90;;;;;;7393698;19;20364;-78
2021/12/11 06:20:44;;;;;;;10.50;8.13;;;-6.20;99.90;;;;;;7389545;19;20316;-79
2021/12/11 06:23:10;;;;;;;9.40;7.80;;;-6.20;99.90;;;;;;7390905;19;20316;-79
2021/12/11 06:25:35;;;;;;;13.00;9.47;;;-6.20;99.90;;;;;;7392156;19;20324;-78
2021/12/11 06:28:03;;;;;;;9.43;8.43;;;-6.40;99.90;;;;;;7392917;19;20354;-79
2021/12/11 06:30:28;;;;;;;12.35;7.68;;;-6.40;99.90;;;;;;7391551;19;20673;-78
2021/12/11 06:32:54;;;;;;;11.05;8.18;;;-6.40;99.90;;;;;;7383488;19;20323;-79
2021/12/11 06:35:31;;;;;;;13.82;8.05;;;-6.50;99.90;;;;;;7385724;19;20316;-79
2021/12/11 06:37:57;;;;;;;10.07;8.05;;;-6.50;99.90;;;;;;7284073;19;2011496;-79
2021/12/11 06:40:24;;;;;;;9.73;8.73;;;-6.60;99.90;;;;;;7382622;19;20312;-79
2021/12/11 06:42:51;;;;;;;14.00;8.45;;;-6.70;99.90;;;;;;7385109;19;20333;-80
2021/12/11 06:45:20;;;;;;;15.30;10.27;;;-6.60;99.90;;;;;;7384078;19;20313;-78
2021/12/11 06:47:46;;;;;;;14.25;9.18;;;-6.60;99.90;;;;;;7383940;19;20336;-79
2021/12/11 06:50:12;;;;;;;17.52;11.35;;;-6.70;99.90;;;;;;7384134;19;21099;-78
2021/12/11 06:52:37;;;;;;;11.27;9.82;;;-6.80;99.90;;;;;;7370885;19;20420;-78
2021/12/11 06:55:04;;;;;;;14.60;8.70;;;-6.80;99.90;;;;;;7384999;19;20337;-78
2021/12/11 06:57:30;;;;;;;15.00;9.15;;;-6.80;99.90;;;;;;7384211;19;20337;-79
2021/12/11 06:59:55;;;;;;;12.30;9.63;;;-6.70;99.90;;;;;;7383153;19;20320;-79
2021/12/11 07:02:21;;;;;;;14.77;11.13;;;-6.60;99.90;;;;;;7386247;19;20308;-79
2021/12/11 07:04:47;;;;;;;22.47;13.50;;;-6.60;99.90;;;;;;7383900;19;20305;-78
2021/12/11 07:07:19;;;;;;;14.68;11.60;;;-6.70;99.90;;;;;;7386924;19;20327;-79
2021/12/11 07:09:45;;;;;;;17.23;10.88;;;-6.70;99.90;;;;;;7384231;19;20316;-79
2021/12/11 07:12:11;;;;;;;16.50;11.17;;;-6.80;99.90;;;;;;7383945;19;21071;-79
2021/12/11 07:14:37;;;;;;;16.90;11.50;;;-6.80;99.90;;;;;;7382800;19;20341;-78
2021/12/11 07:17:03;;;;;;;11.97;10.40;;;-6.80;99.90;;;;;;7386184;19;20352;-78
2021/12/11 07:19:29;;;;;;;16.50;12.20;;;-6.80;99.90;;;;;;7383447;19;20300;-78
2021/12/11 07:21:55;;;;;;;12.65;9.68;;;-6.80;99.90;;;;;;7385254;19;20486;-78
2021/12/11 07:24:27;;;;;;;19.63;12.60;;;-6.80;99.90;;;;;;7383959;19;20449;-79
2021/12/11 07:26:53;;;;;;;10.68;9.35;;;-6.70;99.90;;;;;;7383508;19;21094;-79
2021/12/11 07:29:19;;;;;;;15.88;10.98;;;-6.70;99.90;;;;;;7382301;19;20328;-79
2021/12/11 07:31:45;;;;;;;11.67;9.20;;;-6.60;99.90;;;;;;7384928;19;20388;-79
2021/12/11 07:34:12;;;;;;;11.57;8.40;;;-6.60;99.90;;;;;;7383978;19;20312;-79
2021/12/11 07:36:39;;;;;;;16.05;11.10;;;-6.60;99.90;;;;;;7385892;19;20392;-77
2021/12/11 07:39:07;;;;;;;15.35;10.40;;;-6.60;99.90;;;;;;7381743;19;20309;-78
2021/12/11 07:41:32;;;;;;;15.68;10.63;;;-6.50;99.90;;;;;;7384502;19;20809;-78
2021/12/11 07:43:58;;;;;;;14.47;11.47;;;-6.50;99.90;;;;;;7382494;19;21078;-78
2021/12/11 07:46:25;;;;;;;12.63;9.88;;;-6.60;99.90;;;;;;7381091;19;20647;-77
2021/12/11 07:48:51;;;;;;;14.48;11.40;;;-6.60;99.90;;;;;;7381624;19;20328;-78
2021/12/11 07:51:17;;;;;;;13.88;11.15;;;-6.60;99.90;;;;;;7383916;19;20344;-78
2021/12/11 07:53:42;;;;;;;14.65;11.80;;;-6.60;99.90;;;;;;7381917;19;20323;-79
2021/12/11 07:56:08;;;;;;;16.57;12.53;;;-6.50;99.90;;;;;;7384742;19;20316;-79
2021/12/11 07:58:34;;;;;;;17.90;13.60;;;-6.60;99.90;;;;;;7359986;19;20327;-78
2021/12/11 08:01:01;;;;;;;18.87;13.03;;;-6.70;99.90;;;;;;7382487;19;20871;-79
2021/12/11 08:03:27;;;;;;;14.40;11.95;;;-6.70;99.90;;;;;;7384428;19;20872;-78
2021/12/11 08:05:53;;;;;;;16.27;11.52;;;-6.70;99.90;;;;;;7379687;19;20374;-78
2021/12/11 08:08:19;;;;;;;14.90;11.85;;;-6.60;99.90;;;;;;7383319;19;20325;-79
2021/12/11 08:10:55;;;;;;;14.18;11.57;;;-6.60;99.90;;;;;;7383153;19;20361;-78
2021/12/11 08:13:20;;;;;;;14.45;10.65;;;-6.50;99.90;;;;;;7384233;19;20368;-78
2021/12/11 08:15:46;;;;;;;19.17;13.75;;;-6.50;99.90;;;;;;7382074;19;20343;-78
2021/12/11 08:18:13;;;;;;;22.97;13.60;;;-6.50;99.90;;;;;;7368625;19;20934;-78
2021/12/11 08:20:39;;;;;;;18.25;14.15;;;-6.40;99.90;;;;;;7380534;19;20332;-78
2021/12/11 08:23:05;;;;;;;20.50;15.77;;;-6.30;99.90;;;;;;7382996;19;20369;-78
2021/12/11 08:25:32;;;;;;;28.00;20.30;;;-6.30;99.90;;;;;;7381935;19;20313;-78
2021/12/11 08:27:57;;;;;;;38.67;27.50;;;-6.40;99.90;;;;;;7382578;19;20324;-79
2021/12/11 08:30:24;;;;;;;21.13;15.73;;;-6.40;99.90;;;;;;7379181;19;20320;-79
2021/12/11 08:32:50;;;;;;;20.40;15.43;;;-6.50;99.90;;;;;;7383935;19;20401;-79
2021/12/11 08:35:15;;;;;;;18.60;12.53;;;-6.60;99.90;;;;;;7381620;19;20337;-79
2021/12/11 08:37:43;;;;;;;16.80;10.90;;;-6.60;99.90;;;;;;7383901;19;20309;-79
2021/12/11 08:40:11;;;;;;;17.17;12.75;;;-6.70;99.90;;;;;;7379885;19;20742;-79
2021/12/11 08:42:36;;;;;;;17.45;12.38;;;-6.60;99.90;;;;;;7384887;19;20343;-80
2021/12/11 08:45:07;;;;;;;32.85;24.60;;;-6.70;99.90;;;;;;7380023;19;20297;-78
2021/12/11 08:47:34;;;;;;;21.92;16.90;;;-6.60;99.90;;;;;;7385286;19;21744;-80
2021/12/11 08:50:00;;;;;;;17.58;12.63;;;-6.50;99.90;;;;;;7382105;19;20349;-79
2021/12/11 08:52:28;;;;;;;10.83;9.13;;;-6.50;99.90;;;;;;7383273;19;20344;-79
2021/12/11 08:54:55;;;;;;;18.85;12.05;;;-6.40;99.90;;;;;;7382060;19;20411;-78
2021/12/11 08:57:23;;;;;;;15.85;12.95;;;-6.20;99.90;;;;;;7384356;19;20352;-78
2021/12/11 08:59:52;;;;;;;22.38;15.20;;;-6.20;99.90;;;;;;7379614;19;20352;-79
2021/12/11 09:02:24;;;;;;;27.42;17.98;;;-6.00;99.90;;;;;;7391873;19;20336;-80
2021/12/11 09:04:55;;;;;;;21.52;14.55;;;-6.20;99.90;;;;;;7383588;19;20347;-79
2021/12/11 09:07:28;;;;;;;17.88;13.48;;;-6.20;99.90;;;;;;7383482;19;20333;-79
2021/12/11 09:10:22;;;;;;;16.98;13.23;;;-6.10;99.90;;;;;;7383179;19;20323;-78
2021/12/11 09:13:07;;;;;;;17.08;12.80;;;-6.00;99.90;;;;;;7278926;19;2020028;-79
2021/12/11 09:15:38;;;;;;;17.60;12.77;;;-5.90;99.90;;;;;;7278406;19;2004384;-78
2021/12/11 09:18:13;;;;;;;19.08;12.55;;;-5.80;99.90;;;;;;7382001;19;20677;-79
2021/12/11 09:20:51;;;;;;;16.65;12.52;;;-5.90;99.90;;;;;;7378322;19;20355;-79
2021/12/11 09:23:25;;;;;;;17.17;13.38;;;-5.80;99.90;;;;;;7284455;19;2004323;-80
2021/12/11 09:25:55;;;;;;;19.05;13.57;;;-5.80;99.90;;;;;;7386935;19;20328;-80
2021/12/11 09:28:24;;;;;;;19.05;13.20;;;-5.70;99.90;;;;;;7382196;19;20317;-81
2021/12/11 09:31:27;;;;;;;17.55;12.50;;;-5.80;99.90;;;;;;7374688;19;20312;-79
2021/12/11 09:33:57;;;;;;;18.80;13.48;;;-5.80;99.90;;;;;;7276584;19;2011537;-79
2021/12/11 09:36:30;;;;;;;15.63;11.73;;;-5.70;99.90;;;;;;7380777;19;20348;-79
2021/12/11 09:39:05;;;;;;;17.87;12.17;;;-5.60;99.90;;;;;;7378326;19;20855;-79
2021/12/11 09:41:32;;;;;;;15.98;11.50;;;-5.50;99.90;;;;;;7376985;19;21183;-79
2021/12/11 09:43:58;;;;;;;16.45;11.45;;;-5.40;99.90;;;;;;7377245;19;20353;-79
2021/12/11 09:46:45;;;;;;;16.30;10.52;;;-5.30;99.90;;;;;;7381362;19;20316;-79
2021/12/11 09:49:13;;;;;;;14.02;10.50;;;-5.20;99.90;;;;;;7275646;19;2020096;-80
2021/12/11 09:51:42;;;;;;;12.57;10.60;;;-5.10;99.90;;;;;;7379715;19;20674;-79
2021/12/11 09:54:11;;;;;;;17.77;11.48;;;-5.00;99.90;;;;;;7377396;19;20321;-79
2021/12/11 09:56:59;;;;;;;13.45;10.05;;;-4.80;99.90;;;;;;7378298;19;20320;-79
2021/12/11 09:59:26;;;;;;;14.63;11.52;;;-4.80;99.90;;;;;;7374080;19;20340;-79
2021/12/11 10:01:54;;;;;;;16.15;10.98;;;-4.80;99.90;;;;;;7381101;19;20317;-80
2021/12/11 10:04:31;;;;;;;20.02;13.40;;;-4.70;99.90;;;;;;7359715;19;20332;-79
2021/12/11 10:09:47;;;;;;;17.98;11.07;;;-4.70;99.90;;;;;;7382963;19;20342;-79
2021/12/11 10:12:21;;;;;;;14.32;10.98;;;-4.60;99.90;;;;;;7282926;19;2004382;-80
2021/12/11 10:14:50;;;;;;;13.83;9.93;;;-4.60;99.90;;;;;;7386153;19;20336;-80
2021/12/11 10:17:20;;;;;;;16.25;10.68;;;-4.40;99.90;;;;;;7383284;19;20333;-79
2021/12/11 10:19:46;;;;;;;14.13;10.30;;;-4.40;99.90;;;;;;7385388;19;20341;-79
2021/12/11 10:22:19;;;;;;;16.70;12.10;;;-4.30;99.90;;;;;;7387448;19;20396;-79
2021/12/11 10:24:45;;;;;;;15.15;10.70;;;-4.20;99.90;;;;;;7282638;19;2008090;-79
2021/12/11 10:27:12;;;;;;;15.35;10.90;;;-4.20;99.90;;;;;;7386703;19;20445;-79
2021/12/11 10:29:41;;;;;;;11.52;9.10;;;-4.10;99.90;;;;;;7384565;19;20883;-79
2021/12/11 10:32:10;;;;;;;13.10;10.65;;;-4.00;99.90;;;;;;7388198;19;20353;-79
2021/12/11 10:34:36;;;;;;;10.45;8.48;;;-3.90;99.90;;;;;;7386139;19;20324;-80
2021/12/11 10:37:08;;;;;;;9.55;8.40;;;-3.90;99.90;;;;;;7385566;19;20348;-79
2021/12/11 10:39:35;;;;;;;11.73;10.23;;;-3.80;99.90;;;;;;7384918;19;20316;-79
2021/12/11 10:42:00;;;;;;;12.18;9.38;;;-3.80;99.90;;;;;;7388399;19;20324;-80
2021/12/11 10:44:28;;;;;;;12.25;9.20;;;-3.80;99.90;;;;;;7384446;19;20870;-79
2021/12/11 10:47:09;;;;;;;11.00;8.40;;;-4.00;99.90;;;;;;7386388;19;20320;-79
2021/12/11 10:49:35;;;;;;;11.02;9.45;;;-4.00;99.90;;;;;;7383449;19;20324;-79
2021/12/11 10:52:13;;;;;;;12.45;9.73;;;-3.90;99.90;;;;;;7388145;19;20309;-79
2021/12/11 10:54:38;;;;;;;11.95;9.93;;;-3.80;99.90;;;;;;7283261;19;2009043;-79
2021/12/11 10:57:04;;;;;;;17.10;10.90;;;-3.80;99.90;;;;;;7381107;19;20332;-80
2021/12/11 10:59:32;;;;;;;11.27;9.82;;;-3.70;99.90;;;;;;7381912;19;20907;-78
2021/12/11 11:02:05;;;;;;;13.73;12.00;;;-3.60;99.90;;;;;;7384985;19;20305;-79
2021/12/11 11:04:36;;;;;;;17.77;12.77;;;-3.60;99.90;;;;;;7390646;19;20344;-81
2021/12/11 11:07:02;;;;;;;17.58;11.95;;;-3.70;99.90;;;;;;7399812;19;20353;-81
2021/12/11 11:09:28;;;;;;;15.52;11.50;;;-3.60;99.90;;;;;;7404534;19;20320;-81
2021/12/11 11:12:02;;;;;;;15.97;12.27;;;-3.60;99.90;;;;;;7399534;19;20374;-80
2021/12/11 11:14:47;;;;;;;15.43;12.33;;;-3.60;99.90;;;;;;7325221;19;20411;-81
2021/12/11 11:17:29;;;;;;;18.95;11.60;;;-3.60;99.90;;;;;;7257212;19;20320;-81
2021/12/11 11:20:58;;;;;;;16.63;12.48;;;-3.60;99.90;;;;;;7322888;19;20424;-80
2021/12/11 11:23:37;;;;;;;16.52;11.95;;;-3.70;99.90;;;;;;7180134;19;2004472;-82
2021/12/11 11:26:44;;;;;;;15.32;12.32;;;-3.60;99.90;;;;;;7361417;19;20328;-80
2021/12/11 11:32:31;;;;;;;13.25;10.57;;;-3.50;99.90;;;;;;7209772;19;2004545;-80
2021/12/11 11:35:18;;;;;;;15.75;11.43;;;-3.70;99.90;;;;;;7321195;19;20327;-80
2021/12/11 11:37:56;;;;;;;16.70;11.38;;;-3.60;99.90;;;;;;7361272;19;20320;-81
2021/12/11 11:40:31;;;;;;;15.60;12.23;;;-3.80;99.90;;;;;;7322622;19;20661;-80
2021/12/11 11:50:33;;;;;;;14.40;12.18;;;-3.50;99.90;;;;;;7382682;19;20327;-80
2021/12/11 11:56:05;;;;;;;18.48;12.32;;;-3.40;99.90;;;;;;7383313;19;20682;-81
2021/12/11 11:59:06;;;;;;;15.52;11.68;;;-3.20;99.90;;;;;;7357984;19;20756;-81
2021/12/11 12:02:44;;;;;;;28.40;16.35;;;-3.20;99.90;;;;;;7308240;19;2003706;-81
2021/12/11 12:05:39;;;;;;;16.52;13.65;;;-3.00;99.90;;;;;;7205368;19;2004475;-82
2021/12/11 12:09:03;;;;;;;19.35;14.65;;;-3.00;99.90;;;;;;7231490;19;2004271;-81
2021/12/11 12:12:15;;;;;;;20.77;14.60;;;-2.90;99.90;;;;;;7110420;19;2004467;-81
2021/12/11 12:15:51;;;;;;;27.42;18.33;;;-3.00;99.90;;;;;;7183289;19;2004536;-82
2021/12/11 12:18:36;;;;;;;26.77;14.52;;;-2.90;99.90;;;;;;7192695;19;2004426;-82
2021/12/11 13:16:12;;;;;;;15.57;13.05;;;-2.60;99.90;;;;;;7393917;19;20433;-79
2021/12/11 13:47:06;;;;;;;14.88;11.60;;;-2.70;99.90;;;;;;7399108;19;20320;-80
2021/12/11 13:52:40;;;;;;;15.05;10.70;;;-2.70;99.90;;;;;;7399842;19;20331;-79
2021/12/11 13:55:10;;;;;;;13.13;10.15;;;-2.60;99.90;;;;;;7393319;19;25533;-78
2021/12/11 14:01:56;;;;;;;14.85;10.73;;;-2.70;99.90;;;;;;7400193;19;20413;-81
2021/12/11 14:30:32;;;;;;;23.58;17.85;;;-3.00;99.90;;;;;;7392588;19;20872;-78
2021/12/11 14:32:59;;;;;;;15.43;12.48;;;-3.00;99.90;;;;;;7389301;19;20329;-79
2021/12/11 14:35:27;;;;;;;15.55;12.95;;;-2.90;99.90;;;;;;7385930;19;20324;-79
2021/12/11 14:37:53;;;;;;;14.75;11.35;;;-2.90;99.90;;;;;;7385884;19;20970;-78
2021/12/11 14:40:20;;;;;;;18.75;13.63;;;-3.00;99.90;;;;;;7387232;19;20356;-79
2021/12/11 14:42:46;;;;;;;15.02;12.00;;;-2.90;99.90;;;;;;7388276;19;20725;-78
2021/12/11 14:45:16;;;;;;;15.32;12.10;;;-2.90;99.90;;;;;;7387162;19;20317;-79
2021/12/11 14:47:43;;;;;;;18.25;11.00;;;-2.90;99.90;;;;;;7386656;19;20407;-82
2021/12/11 14:50:09;;;;;;;14.95;11.90;;;-2.90;99.90;;;;;;7386049;19;20359;-78
2021/12/11 14:52:35;;;;;;;16.30;11.57;;;-2.90;99.90;;;;;;7387253;19;20334;-79
2021/12/11 14:55:04;;;;;;;18.13;11.53;;;-2.90;99.90;;;;;;7385268;19;20316;-78
2021/12/11 14:57:31;;;;;;;15.73;11.37;;;-2.90;99.90;;;;;;7371251;19;20348;-79
2021/12/11 14:59:59;;;;;;;16.73;11.85;;;-2.90;99.90;;;;;;7365349;19;20361;-78
2021/12/11 15:02:28;;;;;;;16.43;12.13;;;-3.00;99.90;;;;;;7388685;19;20313;-79
2021/12/11 15:04:55;;;;;;;16.73;12.70;;;-2.90;99.90;;;;;;7385822;19;20341;-78
2021/12/11 15:07:24;;;;;;;16.23;12.40;;;-3.00;99.90;;;;;;7385357;19;20329;-79
2021/12/11 15:09:54;;;;;;;16.10;11.73;;;-2.90;99.90;;;;;;7383919;19;20346;-79
2021/12/11 15:12:20;;;;;;;14.65;11.63;;;-2.90;99.90;;;;;;7379379;19;20359;-77
2021/12/11 15:14:46;;;;;;;14.95;11.63;;;-2.90;99.90;;;;;;7381866;19;20351;-80
2021/12/11 15:17:18;;;;;;;14.57;11.53;;;-2.90;99.90;;;;;;7383283;19;20321;-79
2021/12/11 15:19:46;;;;;;;15.38;12.02;;;-2.90;99.90;;;;;;7381670;19;20309;-78